Flag for Denmark

Past Weather in 55°41'52.9"N, 12°36'03.9"E, Denmark — Yesterday and Last 2 Weeks

Currently: 59 °F. Clear. (Weather station: Koebenhavn-Kastrup Airport, Denmark). See more current weather

Past Weather in 55°41'52.9"N, 12°36'03.9"E — Graph

°F

55°41'52.9"N, 12°36'03.9"E Temperature Yesterday

Maximum temperature yesterday: 72 °F (at 2:50 pm)
Minimum temperature yesterday: 54 °F (at 1:20 am)
Average temperature yesterday: 63 °F

High & Low Weather Summary for the Past Weeks

 TemperatureHumidityPressure
High73 °F (May 18, 3:20 pm)94% (May 6, 12:20 am)30.33 "Hg (May 6, 12:20 am)
Low41 °F (May 8, 1:50 am)31% (May 18, 3:20 pm)29.65 "Hg (May 5, 10:20 pm)
Average57 °F67%30.09 "Hg
* Reported May 5 10:20 pm — May 20 10:50 pm, 55°41'52.9"N, 12°36'03.9"E. Weather by CustomWeather, © 2024

Note: Actual official high and low records may vary slightly from our data, if they occured in-between our weather recording intervals... More about our weather records

55°41'52.9"N, 12°36'03.9"E Weather History for the Previous 24 Hours

Scroll right to see more
 ConditionsComfort  
Time TempWeatherWind HumidityBarometerVisibility
10:50 pm
Mon, May 20
61 °FClear.16 mph72%30.04 "HgN/A
10:20 pm61 °FClear.10 mph68%30.04 "HgN/A
9:50 pm61 °FClear.9 mph68%30.04 "HgN/A
9:20 pm61 °FClear.10 mph68%30.04 "HgN/A
8:50 pm63 °FClear.10 mph68%30.01 "HgN/A
8:20 pm64 °FClear.12 mph64%30.01 "HgN/A
7:50 pm66 °FClear.10 mph64%30.01 "HgN/A
6:50 pm68 °FClear.12 mph56%29.98 "HgN/A
6:20 pm68 °FClear.13 mph56%29.98 "HgN/A
5:50 pm72 °FClear.8 mph53%29.98 "HgN/A
5:20 pm70 °FClear.9 mph50%29.98 "HgN/A
4:50 pm70 °FClear.10 mph50%29.98 "HgN/A
4:20 pm70 °FClear.12 mph50%29.98 "HgN/A
3:50 pm70 °FClear.13 mph53%29.98 "HgN/A
3:20 pm70 °FClear.5 mph53%29.98 "HgN/A
2:50 pm72 °FPassing clouds.6 mph53%29.98 "HgN/A
2:20 pm70 °FPassing clouds.6 mph57%29.98 "HgN/A
1:50 pm70 °FPartly sunny.5 mph57%29.98 "HgN/A
1:20 pm70 °FPassing clouds.6 mph57%29.98 "HgN/A
12:50 pm70 °FClear.7 mph57%29.98 "HgN/A
12:20 pm68 °FClear.7 mph60%29.98 "HgN/A
11:50 am70 °FClear.13 mph53%29.95 "HgN/A
11:20 am70 °FClear.8 mph57%29.95 "HgN/A
10:50 am66 °FClear.8 mph64%29.95 "HgN/A
9:50 am64 °FClear.8 mph64%29.95 "HgN/A
8:50 am63 °FClear.7 mph68%29.92 "HgN/A
8:20 am63 °FClear.5 mph68%29.92 "HgN/A
7:50 am61 °FClear.6 mph72%29.92 "HgN/A
7:20 am61 °FClear.6 mph72%29.92 "HgN/A
6:50 am59 °FClear.6 mph82%29.92 "HgN/A
6:20 am57 °FClear.5 mph88%29.92 "HgN/A
5:50 am55 °FClear.6 mph88%29.89 "HgN/A
5:20 am55 °FClear.5 mph82%29.89 "HgN/A
4:50 am55 °FClear.3 mph82%29.89 "HgN/A
4:20 am54 °FClear.1 mph82%29.89 "HgN/A
3:50 am54 °FClear.No wind82%29.89 "HgN/A
3:20 am55 °FClear.1 mph82%29.89 "HgN/A
2:50 am54 °FClear.No wind88%29.89 "HgN/A
2:20 am54 °FClear.1 mph88%29.89 "HgN/A
1:50 am54 °FClear.3 mph88%29.89 "HgN/A
1:20 am54 °FClear.1 mph88%29.89 "HgN/A
12:50 am55 °FClear.3 mph82%29.89 "HgN/A
12:20 am55 °FClear.5 mph82%29.89 "HgN/A
Weather by CustomWeather, © 2024

See weather overview